Time;durP1;ratioP1;P1;durP2;ratioP2;P2;SDS_P1;SDS_P2;PMS_P1;PMS_P2;Temp;Humidity;BMP_temperature;BMP_pressure;BME280_temperature;BME280_humidity;BME280_pressure;Samples;Min_cycle;Max_cycle;Signal;HPM_P1;HPM_P2
2021/07/19 00:02:20;;;;;;;4.43;4.13;;;;;;;13.99;100.00;95841.28;5036404;28;20224;-74
2021/07/19 00:04:48;;;;;;;3.90;3.60;;;;;;;13.99;100.00;95840.44;5047594;28;20223;-74
2021/07/19 00:07:16;;;;;;;2.37;2.27;;;;;;;14.00;100.00;95847.41;5059183;28;20278;-73
2021/07/19 00:09:45;;;;;;;2.53;2.43;;;;;;;13.98;100.00;95849.41;5055891;28;20250;-74
2021/07/19 00:12:15;;;;;;;1.60;1.50;;;;;;;13.95;100.00;95842.69;5068329;28;20217;-74
2021/07/19 00:14:45;;;;;;;2.77;2.67;;;;;;;13.89;100.00;95841.63;5058785;28;20241;-74
2021/07/19 00:17:16;;;;;;;3.10;2.90;;;;;;;13.85;100.00;95837.78;5048741;28;20451;-74
2021/07/19 00:19:46;;;;;;;2.40;2.30;;;;;;;13.85;100.00;95836.94;5048682;28;20659;-73
2021/07/19 00:22:14;;;;;;;2.80;2.70;;;;;;;13.82;100.00;95829.41;5049509;28;20210;-74
2021/07/19 00:24:42;;;;;;;3.57;3.37;;;;;;;13.80;100.00;95829.56;5033311;28;20466;-74
2021/07/19 00:27:11;;;;;;;3.17;2.97;;;;;;;13.78;100.00;95833.44;5059625;28;20259;-75
2021/07/19 00:29:41;;;;;;;3.53;3.33;;;;;;;13.73;100.00;95838.56;5060431;28;20318;-74
2021/07/19 00:32:09;;;;;;;2.87;2.77;;;;;;;13.73;100.00;95831.41;5056877;28;20484;-74
2021/07/19 00:34:39;;;;;;;2.63;2.53;;;;;;;13.66;100.00;95831.38;5046018;28;20257;-74
2021/07/19 00:37:07;;;;;;;3.27;3.07;;;;;;;13.59;100.00;95829.72;5053453;28;20221;-74
2021/07/19 00:39:35;;;;;;;4.80;4.40;;;;;;;13.48;100.00;95827.63;5039739;28;20210;-74
2021/07/19 00:42:04;;;;;;;3.97;3.67;;;;;;;13.36;100.00;95828.22;5054975;28;20306;-74
2021/07/19 00:44:32;;;;;;;3.10;2.93;;;;;;;13.47;100.00;95831.31;5046535;28;20218;-74
2021/07/19 00:47:01;;;;;;;3.43;3.20;;;;;;;13.48;100.00;95822.34;5038148;28;20223;-74
2021/07/19 00:49:33;;;;;;;4.30;4.03;;;;;;;13.48;100.00;95827.63;5032863;28;20406;-74
2021/07/19 00:52:06;;;;;;;3.93;3.73;;;;;;;13.38;100.00;95826.16;5058780;28;20484;-75
2021/07/19 00:54:36;;;;;;;3.63;3.43;;;;;;;13.36;100.00;95830.03;5047110;28;20716;-74
2021/07/19 00:57:07;;;;;;;6.23;5.00;;;;;;;13.33;100.00;95825.94;5035188;28;20603;-74
2021/07/19 00:59:36;;;;;;;4.80;4.40;;;;;;;13.40;100.00;95836.56;5031387;28;20219;-74
2021/07/19 01:02:07;;;;;;;4.20;3.90;;;;;;;13.38;100.00;95833.31;5033478;28;20299;-76
2021/07/19 01:04:37;;;;;;;3.23;2.93;;;;;;;13.32;100.00;95834.91;5036009;28;20310;-74
2021/07/19 01:07:08;;;;;;;3.77;3.50;;;;;;;13.27;100.00;95834.69;5050898;28;20246;-74
2021/07/19 01:09:37;;;;;;;3.70;3.50;;;;;;;13.27;100.00;95832.03;5065125;28;20229;-74
2021/07/19 01:12:08;;;;;;;5.17;4.77;;;;;;;13.30;100.00;95839.59;5043281;28;20236;-74
2021/07/19 01:14:43;;;;;;;4.80;4.50;;;;;;;13.32;100.00;95834.91;5035304;28;20989;-75
2021/07/19 01:17:12;;;;;;;3.97;3.77;;;;;;;13.34;100.00;95838.16;5038460;28;20226;-75
2021/07/19 01:19:45;;;;;;;4.23;3.83;;;;;;;13.37;100.00;95835.16;5039675;28;20226;-75
2021/07/19 01:22:43;;;;;;;5.27;4.87;;;;;;;13.43;100.00;95830.88;5047207;28;20719;-74
2021/07/19 01:25:26;;;;;;;6.13;5.33;;;;;;;13.54;100.00;95838.28;5057323;28;20216;-75
2021/07/19 01:28:04;;;;;;;6.10;5.60;;;;;;;13.60;100.00;95834.00;5045491;28;20234;-75
2021/07/19 01:30:36;;;;;;;5.27;4.77;;;;;;;13.61;100.00;95830.31;5050162;28;20228;-74
2021/07/19 01:33:06;;;;;;;5.10;4.70;;;;;;;13.61;100.00;95835.63;5058958;28;20210;-74
2021/07/19 01:35:38;;;;;;;4.93;4.53;;;;;;;13.59;100.00;95838.50;5051771;28;20225;-74
2021/07/19 01:38:09;;;;;;;4.10;3.90;;;;;;;13.61;100.00;95832.97;5056328;28;20222;-74
2021/07/19 01:40:47;;;;;;;3.57;3.10;;;;;;;13.55;100.00;95836.44;5035921;28;20279;-74
2021/07/19 01:43:17;;;;;;;2.30;2.20;;;;;;;13.50;100.00;95836.22;5036598;28;20245;-75
2021/07/19 01:45:50;;;;;;;2.87;2.60;;;;;;;13.34;100.00;95832.88;5044138;28;20231;-74
2021/07/19 01:48:22;;;;;;;3.13;2.93;;;;;;;13.12;100.00;95828.66;5048101;28;20227;-75
2021/07/19 01:50:52;;;;;;;6.93;4.13;;;;;;;12.86;99.87;95826.66;5050644;28;20230;-75
2021/07/19 01:53:30;;;;;;;3.70;3.50;;;;;;;12.74;100.00;95829.03;5037994;28;20295;-75
2021/07/19 01:56:02;;;;;;;2.80;2.70;;;;;;;12.66;100.00;95831.81;5033703;28;20314;-75
2021/07/19 01:58:31;;;;;;;2.67;2.03;;;;;;;12.64;100.00;95820.59;5035274;28;20751;-74
2021/07/19 02:01:11;;;;;;;3.83;3.37;;;;;;;12.62;100.00;95822.63;5029345;28;20221;-74
2021/07/19 02:03:41;;;;;;;2.43;2.33;;;;;;;12.62;100.00;95825.28;5030336;28;20223;-74
2021/07/19 02:06:10;;;;;;;2.57;2.47;;;;;;;12.64;100.00;95828.53;5031648;28;20713;-74
2021/07/19 02:08:50;;;;;;;3.23;2.73;;;;;;;12.61;100.00;95831.56;5042602;28;20592;-74
2021/07/19 02:11:26;;;;;;;3.30;3.10;;;;;;;12.62;100.00;95833.22;5036349;28;20226;-74
2021/07/19 02:13:57;;;;;;;2.60;2.50;;;;;;;12.63;100.00;95832.22;5035275;28;20227;-74
2021/07/19 02:16:31;;;;;;;2.73;2.63;;;;;;;12.65;100.00;95827.53;5039900;28;20214;-75
2021/07/19 02:19:03;;;;;;;3.43;3.23;;;;;;;12.67;100.00;95824.69;5036471;28;20218;-75
2021/07/19 02:21:34;;;;;;;3.03;2.67;;;;;;;12.66;100.00;95823.88;5034356;28;20721;-74
2021/07/19 02:24:32;;;;;;;2.00;1.90;;;;;;;12.68;100.00;95832.44;5051121;28;20845;-75
2021/07/19 02:27:15;;;;;;;2.67;2.57;;;;;;;12.68;100.00;95827.13;5046010;28;20313;-75
2021/07/19 02:29:45;;;;;;;1.90;1.80;;;;;;;12.68;100.00;95827.13;5051317;28;20660;-75
2021/07/19 02:32:17;;;;;;;3.77;2.80;;;;;;;12.71;100.00;95829.41;5065813;28;20244;-74
2021/07/19 02:34:53;;;;;;;2.30;2.20;;;;;;;12.69;100.00;95827.94;5032620;28;20721;-75
2021/07/19 02:37:24;;;;;;;2.67;2.53;;;;;;;12.65;100.00;95832.81;5051047;28;20226;-74
2021/07/19 02:40:13;;;;;;;1.97;1.87;;;;;;;12.62;100.00;95822.63;5034726;28;20656;-74
2021/07/19 02:42:45;;;;;;;3.30;3.10;;;;;;;12.49;100.00;95817.22;5040585;28;20687;-74
2021/07/19 02:45:16;;;;;;;2.97;2.77;;;;;;;12.35;100.00;95818.13;5030485;28;20628;-74
2021/07/19 02:47:51;;;;;;;3.17;2.97;;;;;;;12.33;100.00;95820.94;5035582;28;20305;-74
2021/07/19 02:50:25;;;;;;;2.63;2.53;;;;;;;12.30;100.00;95817.88;5035224;28;20239;-74
2021/07/19 02:52:57;;;;;;;2.20;2.10;;;;;;;12.30;100.00;95817.88;5041120;28;20240;-74
2021/07/19 02:55:29;;;;;;;2.07;1.97;;;;;;;12.27;100.00;95828.84;5059932;28;20295;-74
2021/07/19 02:57:58;;;;;;;10.97;2.60;;;;;;;12.15;100.00;95821.41;5051699;28;20918;-74
2021/07/19 03:00:27;;;;;;;50.00;6.80;;;;;;;11.95;100.00;95825.69;5042031;28;20715;-74
2021/07/19 03:03:04;;;;;;;8.20;4.30;;;;;;;11.88;100.00;95824.78;5068020;28;20250;-74
2021/07/19 03:05:36;;;;;;;3.27;2.93;;;;;;;11.90;100.00;95833.38;5058936;28;20210;-74
2021/07/19 03:08:08;;;;;;;3.47;3.17;;;;;;;11.86;100.00;95834.75;5044437;28;20223;-74
2021/07/19 03:11:00;;;;;;;7.10;3.23;;;;;;;11.76;100.00;95820.97;5045875;28;20720;-74
2021/07/19 03:13:33;;;;;;;3.57;2.37;;;;;;;11.75;100.00;95827.28;5064257;28;20222;-71
2021/07/19 03:16:04;;;;;;;2.97;2.13;;;;;;;11.72;100.00;95827.66;5038886;28;20215;-71
2021/07/19 03:18:38;;;;;;;25.60;5.50;;;;;;;11.68;100.00;95822.72;5052321;28;20222;-71
2021/07/19 03:21:08;;;;;;;3.13;2.93;;;;;;;11.73;100.00;95821.38;5044806;28;20686;-72
2021/07/19 03:23:40;;;;;;;2.90;2.70;;;;;;;11.73;100.00;95821.38;5055703;28;20222;-71
2021/07/19 03:26:11;;;;;;;1.87;1.77;;;;;;;11.76;100.00;95820.97;5042081;28;20233;-71
2021/07/19 03:28:41;;;;;;;2.20;2.10;;;;;;;11.79;100.00;95823.25;5044355;28;20309;-71
2021/07/19 03:31:10;;;;;;;1.80;1.70;;;;;;;11.80;100.00;95817.81;5031181;28;20249;-72
2021/07/19 03:33:42;;;;;;;2.60;2.40;;;;;;;11.85;100.00;95817.25;5043773;28;20378;-71
2021/07/19 03:36:14;;;;;;;1.77;1.70;;;;;;;11.90;100.00;95815.69;5039164;28;20220;-71
2021/07/19 03:38:45;;;;;;;1.67;1.57;;;;;;;11.94;100.00;95814.28;5031697;28;20210;-72
2021/07/19 03:41:39;;;;;;;16.83;4.73;;;;;;;11.96;100.00;95822.84;5053885;28;20222;-72
2021/07/19 03:44:10;;;;;;;1.97;1.87;;;;;;;12.04;100.00;95835.13;5072794;28;20217;-72
2021/07/19 03:46:41;;;;;;;2.20;2.10;;;;;;;12.07;100.00;95829.50;5037319;28;20595;-71
2021/07/19 03:49:12;;;;;;;2.37;2.27;;;;;;;12.11;100.00;95828.09;5030585;28;20269;-72
2021/07/19 03:51:43;;;;;;;1.63;1.53;;;;;;;12.16;100.00;95823.06;5039442;28;20578;-72
2021/07/19 03:54:12;;;;;;;1.70;1.60;;;;;;;12.18;100.00;95823.69;5033498;28;20347;-72
2021/07/19 03:56:41;;;;;;;2.13;2.03;;;;;;;12.26;100.00;95816.63;5048560;28;20227;-71
2021/07/19 03:59:13;;;;;;;1.93;1.83;;;;;;;12.31;100.00;95808.94;5035980;28;20575;-72
2021/07/19 04:01:43;;;;;;;2.07;1.97;;;;;;;12.36;100.00;95814.47;5035401;28;20296;-72
2021/07/19 04:04:18;;;;;;;2.93;2.73;;;;;;;12.42;100.00;95816.34;5038596;28;20530;-71
2021/07/19 04:06:53;;;;;;;3.00;2.80;;;;;;;12.50;100.00;95822.31;5038255;28;20699;-71
2021/07/19 04:09:22;;;;;;;2.63;2.43;;;;;;;12.57;100.00;95825.03;5040926;28;20230;-71
2021/07/19 04:11:51;;;;;;;4.00;2.03;;;;;;;12.63;100.00;95818.16;5043230;28;20223;-71
2021/07/19 04:14:21;;;;;;;3.03;2.93;;;;;;;12.64;100.00;95823.25;5051481;28;20246;-71
2021/07/19 04:16:51;;;;;;;2.33;2.23;;;;;;;12.68;100.00;95828.97;5044456;28;20588;-71
2021/07/19 04:19:26;;;;;;;2.27;2.17;;;;;;;12.72;100.00;95832.88;5052838;28;20214;-71
2021/07/19 04:21:56;;;;;;;1.77;1.67;;;;;;;12.76;100.00;95829.66;5034042;28;20215;-71
2021/07/19 04:24:38;;;;;;;1.60;1.50;;;;;;;12.75;100.00;95828.00;5037418;28;20215;-70
2021/07/19 04:27:12;;;;;;;2.07;1.97;;;;;;;12.75;100.00;95833.31;5058691;28;20610;-71
2021/07/19 04:29:48;;;;;;;1.63;1.53;;;;;;;12.75;100.00;95828.00;5051761;28;20218;-71
2021/07/19 04:32:21;;;;;;;2.43;2.23;;;;;;;12.76;100.00;95829.66;5027871;28;20671;-70
2021/07/19 04:34:54;;;;;;;1.63;1.53;;;;;;;12.79;100.00;95823.94;5031973;28;20878;-71
2021/07/19 04:37:23;;;;;;;1.40;1.30;;;;;;;12.84;100.00;95825.22;5068605;28;20225;-71
2021/07/19 04:39:52;;;;;;;1.97;1.70;;;;;;;12.82;100.00;95822.78;5041663;28;20230;-71
2021/07/19 04:42:26;;;;;;;2.17;2.07;;;;;;;12.77;100.00;95825.97;5064523;28;20633;-71
2021/07/19 04:44:55;;;;;;;1.43;1.40;;;;;;;12.85;100.00;95834.78;5059619;28;20246;-71
2021/07/19 04:47:23;;;;;;;1.73;1.63;;;;;;;12.95;100.00;95824.66;5053752;28;20319;-71
2021/07/19 04:49:51;;;;;;;1.47;1.37;;;;;;;13.04;100.00;95826.97;5068829;28;20621;-71
2021/07/19 04:52:20;;;;;;;1.43;1.37;;;;;;;13.14;100.00;95826.63;5072812;28;20302;-71
2021/07/19 04:54:52;;;;;;;1.50;1.40;;;;;;;13.28;100.00;95817.75;5052877;28;20723;-71
2021/07/19 04:57:22;;;;;;;2.00;1.90;;;;;;;13.42;100.00;95820.47;5060280;28;20641;-71
2021/07/19 04:59:52;;;;;;;1.97;1.87;;;;;;;13.57;100.00;95818.50;5032653;28;20270;-71
2021/07/19 05:02:23;;;;;;;3.33;3.13;;;;;;;13.71;100.00;95814.03;5055846;28;20221;-71
2021/07/19 05:04:53;;;;;;;2.43;2.23;;;;;;;13.83;100.00;95821.25;5035278;28;20253;-71
2021/07/19 05:07:26;;;;;;;1.93;1.83;;;;;;;13.93;100.00;95821.66;5047720;28;20222;-71
2021/07/19 05:09:55;;;;;;;4.10;3.63;;;;;;;14.06;100.00;95820.06;5059463;28;20234;-71
2021/07/19 05:12:24;;;;;;;3.37;3.07;;;;;;;14.16;100.00;95821.28;5051407;28;20773;-71
2021/07/19 05:14:53;;;;;;;4.60;4.20;;;;;;;14.25;100.00;95827.22;5054508;28;20221;-71
2021/07/19 05:17:22;;;;;;;6.77;4.60;;;;;;;14.37;100.00;95828.28;5065226;28;20722;-71
2021/07/19 05:19:50;;;;;;;4.30;4.00;;;;;;;14.49;100.00;95821.38;5063736;28;20230;-71
2021/07/19 05:22:19;;;;;;;3.67;3.37;;;;;;;14.60;100.00;95832.41;5082359;28;20274;-71
2021/07/19 05:24:48;;;;;;;4.20;4.00;;;;;;;14.70;100.00;95822.16;5063953;28;20241;-71
2021/07/19 05:27:16;;;;;;;5.77;5.47;;;;;;;14.82;100.00;95820.53;5055663;28;20214;-71
2021/07/19 05:29:45;;;;;;;6.00;5.33;;;;;;;14.91;100.00;95816.66;5075434;28;20230;-71
2021/07/19 05:32:13;;;;;;;6.03;5.70;;;;;;;15.08;100.00;95820.47;5055154;28;20218;-71
2021/07/19 05:34:41;;;;;;;4.93;4.53;;;;;;;15.17;100.00;95825.56;5027136;28;20251;-71
2021/07/19 05:37:09;;;;;;;17.97;5.43;;;;;;;15.29;100.00;95815.94;5055219;28;20219;-71
2021/07/19 05:39:37;;;;;;;14.70;7.87;;;;;;;15.38;100.00;95813.88;5050101;28;20231;-71
2021/07/19 05:42:07;;;;;;;5.53;5.13;;;;;;;15.50;100.00;95807.69;5054501;28;20218;-71
2021/07/19 05:44:35;;;;;;;6.73;6.13;;;;;;;15.64;100.00;95808.50;5061943;28;20250;-71
2021/07/19 05:47:04;;;;;;;5.97;5.63;;;;;;;15.81;99.89;95806.13;5058446;28;20272;-72
2021/07/19 05:49:33;;;;;;;5.97;5.57;;;;;;;15.96;99.40;95805.84;5063475;28;20270;-72
2021/07/19 05:52:01;;;;;;;7.50;6.23;;;;;;;16.10;98.95;95802.91;5033795;28;20722;-71
2021/07/19 05:54:30;;;;;;;9.90;5.90;;;;;;;16.27;98.73;95805.03;5041498;28;20246;-71
2021/07/19 05:56:58;;;;;;;7.27;6.67;;;;;;;16.41;98.34;95809.25;5055593;28;20223;-71
2021/07/19 05:59:28;;;;;;;7.57;7.07;;;;;;;16.54;96.92;95811.81;5032657;28;20218;-71
2021/07/19 06:01:56;;;;;;;8.37;7.70;;;;;;;16.66;96.08;95812.75;5059914;28;20702;-72
2021/07/19 06:04:25;;;;;;;5.97;5.57;;;;;;;16.80;95.18;95817.97;5048803;28;20289;-71
2021/07/19 06:06:53;;;;;;;7.67;7.03;;;;;;;16.94;94.74;95814.16;5053572;28;20276;-72
2021/07/19 06:09:21;;;;;;;8.07;7.30;;;;;;;17.12;94.54;95816.88;5068596;28;20214;-71
2021/07/19 06:11:49;;;;;;;11.90;8.10;;;;;;;17.26;94.29;95815.66;5065807;28;20772;-72
2021/07/19 06:14:18;;;;;;;8.97;8.17;;;;;;;17.42;93.80;95821.47;5063581;28;20221;-72
2021/07/19 06:16:50;;;;;;;6.80;6.40;;;;;;;17.55;92.97;95821.28;5044782;28;20245;-71
2021/07/19 06:19:19;;;;;;;7.00;6.53;;;;;;;17.68;92.75;95818.50;5054414;28;20351;-72
2021/07/19 06:21:47;;;;;;;8.63;7.53;;;;;;;17.81;nan;95818.34;5061018;28;20249;-72
2021/07/19 06:24:16;;;;;;;9.50;8.60;;;;;;;17.89;91.06;95823.38;5040761;28;20300;-71
2021/07/19 06:26:44;;;;;;;7.17;6.67;;;;;;;17.97;91.49;95814.25;5044625;28;20230;-72
2021/07/19 06:29:13;;;;;;;7.27;6.83;;;;;;;18.09;91.46;95814.28;5054961;28;20213;-71
2021/07/19 06:31:41;;;;;;;8.97;7.87;;;;;;;18.21;90.55;95820.50;5046933;28;20215;-71
2021/07/19 06:34:11;;;;;;;6.77;5.97;;;;;;;18.26;89.23;95817.13;5057456;28;20225;-71
2021/07/19 06:36:39;;;;;;;5.47;5.07;;;;;;;18.31;89.16;95810.06;5058577;28;20218;-70
2021/07/19 06:39:08;;;;;;;6.27;5.17;;;;;;;18.46;89.35;95823.78;5048121;28;20217;-71
2021/07/19 06:41:36;;;;;;;7.03;6.30;;;;;;;18.56;88.94;95817.91;5055710;28;20674;-72
2021/07/19 06:44:05;;;;;;;6.10;5.60;;;;;;;18.69;88.68;95811.56;5037925;28;20719;-72
2021/07/19 06:46:34;;;;;;;5.87;5.47;;;;;;;18.84;88.59;95819.97;5054701;28;20236;-72
2021/07/19 06:49:03;;;;;;;6.47;5.97;;;;;;;18.98;88.09;95817.84;5049480;28;20217;-72
2021/07/19 06:51:33;;;;;;;6.27;5.87;;;;;;;19.11;87.60;95814.13;5052708;28;20222;-72
2021/07/19 06:54:01;;;;;;;9.93;6.57;;;;;;;19.20;87.57;95810.03;5047542;28;20227;-71
2021/07/19 06:56:31;;;;;;;7.03;6.53;;;;;;;19.31;87.49;95814.59;5050019;28;20645;-72
2021/07/19 06:58:59;;;;;;;6.37;5.97;;;;;;;19.42;87.56;95819.09;5049445;28;20731;-72
2021/07/19 07:01:27;;;;;;;5.97;5.67;;;;;;;19.56;87.42;95817.81;5061377;28;20344;-72
2021/07/19 07:03:56;;;;;;;6.23;5.70;;;;;;;19.73;87.25;95819.75;5073781;28;22489;-72
2021/07/19 07:06:28;;;;;;;5.87;5.37;;;;;;;19.84;86.34;95819.75;5074958;28;20440;-71
2021/07/19 07:08:59;;;;;;;7.90;7.10;;;;;;;19.98;86.18;95819.47;5042910;28;20230;-71
2021/07/19 07:11:28;;;;;;;6.50;6.03;;;;;;;20.13;85.08;95815.22;5059219;28;20282;-72
2021/07/19 07:13:57;;;;;;;6.20;5.70;;;;;;;20.20;84.23;95816.91;5057899;28;20660;-72
2021/07/19 07:16:26;;;;;;;5.80;5.30;;;;;;;20.28;83.94;95814.66;5061508;28;20317;-72
2021/07/19 07:18:55;;;;;;;6.77;6.17;;;;;;;20.41;83.29;95819.72;5050495;28;20227;-72
2021/07/19 07:21:23;;;;;;;5.80;5.47;;;;;;;20.50;83.14;95812.13;5065756;28;20349;-72
2021/07/19 07:23:51;;;;;;;7.73;6.83;;;;;;;20.65;82.26;95809.69;5050551;28;20238;-71
2021/07/19 07:26:21;;;;;;;5.53;5.23;;;;;;;20.73;80.74;95805.78;5059748;28;20238;-72
2021/07/19 07:28:49;;;;;;;7.30;5.80;;;;;;;20.90;81.91;95809.28;5062395;28;20300;-72
2021/07/19 07:31:17;;;;;;;5.27;4.97;;;;;;;21.08;81.19;95807.41;5065722;28;20213;-72
2021/07/19 07:33:46;;;;;;;6.33;5.97;;;;;;;21.25;80.79;95808.19;5039286;28;20238;-72
2021/07/19 07:36:14;;;;;;;5.13;4.73;;;;;;;21.45;80.29;95813.88;5031397;28;20253;-71
2021/07/19 07:38:42;;;;;;;7.80;6.17;;;;;;;21.65;79.08;95812.50;5056124;28;20761;-71
2021/07/19 07:41:10;;;;;;;10.03;7.03;;;;;;;21.77;77.88;95816.72;5062143;28;20275;-71
2021/07/19 07:43:40;;;;;;;7.67;6.83;;;;;;;21.83;78.00;95818.38;5049357;28;20551;-69
2021/07/19 07:46:08;;;;;;;9.43;7.23;;;;;;;22.02;78.43;95815.38;5079566;28;20635;-70
2021/07/19 07:48:36;;;;;;;6.00;5.50;;;;;;;22.15;77.12;95820.41;5066855;28;20623;-70
2021/07/19 07:51:05;;;;;;;4.60;4.30;;;;;;;22.36;77.45;95819.53;5056151;28;20222;-70
2021/07/19 07:53:34;;;;;;;5.90;5.50;;;;;;;22.63;76.76;95816.81;5070412;28;20222;-69
2021/07/19 07:56:02;;;;;;;5.30;4.87;;;;;;;22.80;75.18;95808.63;5064088;28;20594;-69
2021/07/19 07:58:30;;;;;;;5.57;5.17;;;;;;;22.91;74.92;95813.03;5048441;28;20271;-70
2021/07/19 08:01:00;;;;;;;4.78;4.53;;;;;;;22.99;74.40;95811.75;5055010;28;20226;-70
2021/07/19 08:03:28;;;;;;;6.18;5.00;;;;;;;23.13;73.79;95801.34;5030244;28;20233;-70
2021/07/19 08:05:57;;;;;;;5.57;5.10;;;;;;;23.17;72.20;95813.22;5050170;28;20632;-70
2021/07/19 08:08:24;;;;;;;6.15;5.75;;;;;;;23.32;71.88;95816.03;5034541;28;20215;-70
2021/07/19 08:10:53;;;;;;;6.35;5.95;;;;;;;23.62;70.91;95811.91;5048117;28;20247;-70
2021/07/19 08:13:21;;;;;;;5.72;5.32;;;;;;;23.65;70.15;95804.09;5055120;28;20222;-71
2021/07/19 08:15:49;;;;;;;5.90;5.50;;;;;;;23.73;70.48;95805.47;5044519;28;20310;-71
2021/07/19 08:18:19;;;;;;;5.82;5.35;;;;;;;23.93;70.12;95793.97;5063523;28;20246;-70
2021/07/19 08:20:47;;;;;;;6.70;6.20;;;;;;;24.05;69.68;95798.06;5063125;28;20647;-72
2021/07/19 08:23:16;;;;;;;5.47;4.97;;;;;;;24.13;69.16;95797.53;5049531;28;20702;-70
2021/07/19 08:25:44;;;;;;;4.35;4.00;;;;;;;24.41;69.58;95795.44;5069592;28;20294;-70
2021/07/19 08:28:13;;;;;;;5.43;5.10;;;;;;;24.79;69.07;95796.84;5069430;28;20236;-70
2021/07/19 08:30:41;;;;;;;6.18;5.80;;;;;;;25.03;66.71;95797.13;5065279;28;20309;-71
2021/07/19 08:33:09;;;;;;;6.35;5.85;;;;;;;25.18;66.22;95788.19;5071775;28;20295;-71
2021/07/19 08:35:39;;;;;;;6.53;6.13;;;;;;;25.11;64.89;95783.06;5056480;28;20219;-72
2021/07/19 08:38:07;;;;;;;6.13;5.75;;;;;;;24.98;65.39;95783.59;5063926;28;20710;-71
2021/07/19 08:40:37;;;;;;;5.82;5.43;;;;;;;24.99;65.56;95781.72;5062166;28;20581;-70
2021/07/19 08:43:06;;;;;;;5.35;5.05;;;;;;;25.38;67.73;95781.94;5051112;28;20218;-71
2021/07/19 08:45:34;;;;;;;5.10;4.70;;;;;;;25.80;66.38;95787.78;5067917;28;20226;-71
2021/07/19 08:48:03;;;;;;;7.43;6.47;;;;;;;25.98;63.28;95780.13;5062317;28;20305;-71
2021/07/19 08:50:32;;;;;;;6.57;5.95;;;;;;;26.01;64.19;95780.38;5038514;28;20229;-70
2021/07/19 08:53:02;;;;;;;6.53;5.85;;;;;;;26.25;63.94;95774.31;5045658;28;20280;-72
2021/07/19 08:55:31;;;;;;;5.93;5.38;;;;;;;26.45;63.09;95776.91;5045628;28;20368;-71
2021/07/19 08:58:01;;;;;;;4.97;4.68;;;;;;;26.76;63.12;95773.94;5047416;28;20242;-71
2021/07/19 09:00:30;;;;;;;4.40;4.20;;;;;;;27.05;61.88;95782.13;5057207;28;20418;-72
2021/07/19 09:02:58;;;;;;;4.07;3.75;;;;;;;27.29;59.21;95774.84;5052342;28;20214;-72
2021/07/19 09:05:28;;;;;;;4.57;4.18;;;;;;;27.32;60.75;95768.84;5063792;28;20221;-71
2021/07/19 09:07:57;;;;;;;4.03;3.72;;;;;;;27.65;60.11;95769.03;5060473;28;20262;-71
2021/07/19 09:10:28;;;;;;;4.85;4.55;;;;;;;27.91;58.91;95767.66;5064488;28;20226;-71
2021/07/19 09:12:59;;;;;;;4.43;4.13;;;;;;;28.08;56.65;95763.66;5052372;28;20236;-71
2021/07/19 09:15:33;;;;;;;4.22;3.88;;;;;;;28.06;56.54;95769.34;5029482;28;20214;-71
2021/07/19 09:18:04;;;;;;;4.20;3.88;;;;;;;28.05;57.57;95763.13;5049271;28;20250;-71
2021/07/19 09:20:34;;;;;;;3.42;3.28;;;;;;;28.14;56.48;95757.03;5058942;28;20225;-71
2021/07/19 09:23:03;;;;;;;3.75;3.40;;;;;;;28.44;55.50;95761.22;5051989;28;20295;-72
2021/07/19 09:25:32;;;;;;;5.45;5.05;;;;;;;28.08;54.86;95755.50;5046210;28;20222;-72
2021/07/19 09:28:04;;;;;;;4.95;4.65;;;;;;;27.94;55.95;95756.22;5029388;28;20493;-72
2021/07/19 09:30:34;;;;;;;3.92;3.72;;;;;;;28.15;56.94;95751.31;5052237;28;20221;-71
2021/07/19 09:33:05;;;;;;;6.53;6.13;;;;;;;28.08;55.27;95747.38;5030306;28;20219;-71
2021/07/19 09:35:34;;;;;;;5.03;4.65;;;;;;;28.57;54.07;95742.31;5032620;28;20215;-72
2021/07/19 09:38:06;;;;;;;4.38;4.18;;;;;;;28.47;53.27;95747.09;5047297;28;20719;-71
2021/07/19 09:40:37;;;;;;;8.73;4.53;;;;;;;28.52;53.28;95742.38;5027460;28;20227;-72
2021/07/19 09:43:16;;;;;;;5.15;4.93;;;;;;;28.94;52.90;95740.63;5057492;28;20218;-72
2021/07/19 09:45:45;;;;;;;4.95;4.47;;;;;;;29.11;52.87;95745.50;5059897;28;20226;-71
2021/07/19 09:48:14;;;;;;;5.70;5.30;;;;;;;29.02;55.54;95742.66;5056732;28;20694;-72
2021/07/19 09:50:47;;;;;;;12.88;5.22;;;;;;;29.31;53.27;95747.84;5038006;28;20253;-72
2021/07/19 09:53:15;;;;;;;4.80;4.53;;;;;;;29.71;53.06;95735.38;5047035;28;20230;-72
2021/07/19 09:55:44;;;;;;;5.40;4.90;;;;;;;29.69;53.07;95740.31;5038765;28;20819;-72
2021/07/19 09:58:12;;;;;;;4.60;4.30;;;;;;;29.95;52.64;95742.50;5056049;28;20275;-72
2021/07/19 10:00:46;;;;;;;5.00;4.45;;;;;;;30.33;53.14;95743.06;5069576;28;20222;-72
2021/07/19 10:03:16;;;;;;;5.20;4.90;;;;;;;30.38;50.04;95739.44;5047520;28;20221;-71
2021/07/19 10:05:45;;;;;;;5.55;5.13;;;;;;;30.36;48.07;95736.19;5055395;28;20435;-71
2021/07/19 10:08:23;;;;;;;5.03;4.70;;;;;;;30.32;51.11;95732.47;5069749;28;20225;-71
2021/07/19 10:10:53;;;;;;;5.30;4.75;;;;;;;30.50;50.57;95731.50;5047166;28;20254;-71
2021/07/19 10:13:32;;;;;;;5.43;5.00;;;;;;;30.70;52.20;95731.03;5041882;28;20223;-71
2021/07/19 10:16:01;;;;;;;6.50;5.45;;;;;;;30.81;51.51;95729.66;5036956;28;20237;-71
2021/07/19 10:18:33;;;;;;;4.97;4.68;;;;;;;30.47;49.91;95726.69;5055219;28;20222;-71
2021/07/19 10:21:03;;;;;;;4.72;4.35;;;;;;;30.39;49.31;95730.13;5038932;28;20234;-72
2021/07/19 10:23:31;;;;;;;7.13;5.13;;;;;;;30.59;49.83;95722.28;5064667;28;20713;-72
2021/07/19 10:26:01;;;;;;;4.28;4.07;;;;;;;30.71;47.27;95718.22;5067775;28;21637;-72
2021/07/19 10:28:29;;;;;;;5.18;4.97;;;;;;;30.88;48.00;95720.25;5053807;28;20639;-72
2021/07/19 10:30:57;;;;;;;3.88;3.65;;;;;;;31.08;47.14;95714.25;5056281;28;20647;-72
2021/07/19 10:33:27;;;;;;;5.13;4.85;;;;;;;30.86;47.43;95717.84;5049650;28;20221;-71
2021/07/19 10:36:01;;;;;;;5.88;5.40;;;;;;;30.50;47.51;95710.53;5055692;28;20309;-71
2021/07/19 10:38:31;;;;;;;9.30;5.53;;;;;;;30.59;48.81;95718.75;5038992;28;20245;-71
2021/07/19 10:41:01;;;;;;;4.45;4.10;;;;;;;30.81;47.13;95707.84;5062935;28;20394;-72
2021/07/19 10:43:30;;;;;;;5.07;4.78;;;;;;;30.96;48.21;95711.31;5057687;28;20273;-72
2021/07/19 10:46:11;;;;;;;4.28;3.97;;;;;;;31.25;46.72;95703.47;5061671;28;20215;-71
2021/07/19 10:48:43;;;;;;;4.15;3.05;;;;;;;31.43;46.09;95710.59;5049645;28;20231;-73
2021/07/19 10:51:18;;;;;;;3.42;3.13;;;;;;;31.75;45.87;95711.34;5047090;28;20230;-71
2021/07/19 10:53:46;;;;;;;3.47;3.30;;;;;;;31.55;45.69;95701.84;5047711;28;20326;-71
2021/07/19 10:56:16;;;;;;;3.80;3.25;;;;;;;31.51;44.05;95700.84;5054450;28;20668;-71
2021/07/19 10:58:47;;;;;;;4.55;3.92;;;;;;;31.66;47.38;95705.06;5050890;28;20312;-71
2021/07/19 11:01:21;;;;;;;3.92;3.63;;;;;;;31.83;46.71;95705.16;5061058;28;20221;-71
2021/07/19 11:03:50;;;;;;;4.18;3.70;;;;;;;31.94;44.18;95700.19;5044760;28;20277;-71
2021/07/19 11:06:30;;;;;;;3.47;3.22;;;;;;;31.95;44.87;95688.13;5047267;28;20242;-71
2021/07/19 11:08:59;;;;;;;3.50;3.20;;;;;;;32.07;43.06;95701.94;5066558;28;20242;-71
2021/07/19 11:11:34;;;;;;;2.97;2.78;;;;;;;32.19;44.40;95693.16;5059161;28;20250;-71
2021/07/19 11:14:04;;;;;;;2.65;2.50;;;;;;;32.14;45.13;95694.09;5067818;28;20260;-71
2021/07/19 11:16:41;;;;;;;2.70;2.60;;;;;;;32.14;42.50;95685.09;5063198;28;20240;-70
2021/07/19 11:19:10;;;;;;;2.67;2.58;;;;;;;32.35;45.03;95690.75;5051265;28;20703;-71
2021/07/19 11:21:40;;;;;;;3.25;2.85;;;;;;;32.54;40.78;95678.34;5062315;28;20278;-71
2021/07/19 11:24:10;;;;;;;3.83;2.90;;;;;;;32.25;45.65;95686.38;5050645;28;20589;-70
2021/07/19 11:26:51;;;;;;;5.28;2.53;;;;;;;32.21;41.85;95679.97;5036495;28;20695;-70
2021/07/19 11:29:33;;;;;;;3.17;2.88;;;;;;;31.83;44.34;95680.59;5055755;28;20258;-71
2021/07/19 11:32:07;;;;;;;4.38;3.60;;;;;;;31.50;44.38;95680.16;5038235;28;20225;-70
2021/07/19 11:34:35;;;;;;;3.88;3.40;;;;;;;31.00;46.52;95679.59;5052632;28;20309;-70
2021/07/19 11:37:04;;;;;;;3.47;2.95;;;;;;;30.41;47.08;95673.44;5059276;28;20253;-70
2021/07/19 11:39:43;;;;;;;4.53;4.03;;;;;;;30.44;47.06;95676.34;5058514;28;20249;-69
2021/07/19 11:42:15;;;;;;;3.47;3.28;;;;;;;30.51;43.84;95670.47;5038600;28;20742;-70
2021/07/19 11:44:44;;;;;;;2.45;2.35;;;;;;;30.74;46.28;95676.75;5055577;28;20218;-71
2021/07/19 11:47:16;;;;;;;3.28;3.10;;;;;;;31.14;47.53;95674.84;5060145;28;22921;-70